Aeroporto :
LOGIN :

Iscrizione | Disclaimer

   EN    FR    IT 

 










Sommario :    VFR   VFR Marginale   IFR   IFR Intensivo   IFR Molto Intensivo
Visibilità : 
Base nubi : 
>= 8 km
>= 3000ft
5 / 8 km
1000 / 3000 ft
1500m / 5 km
500 / 1000 ft
800 / 1500m
200 / 500 ft
< 800m
< 200 ft
Simboli :   Temporali  Nebbia  Neve Forte  Precipitazioni Forti  Vento > 20 kt
SIGMETs :   Varie  Temporali  Ghiacco  Turbolenza  Onda orograficha  Ceneri Vulcaniche







- Altitudine del aeroporto : 616 ft
- Codice IATA : PUF
- Carte del aeroporto


LFBP - Pau

ULTIMO METAR :
  • 190430Z AUTO 19004KT CAVOK 11/11 Q1017 TEMPO BKN005

METARs OBSOLETI :
  • 190400Z AUTO VRB02KT CAVOK 11/10 Q1017 TEMPO BKN005
  • 190330Z AUTO 00000KT CAVOK 12/11 Q1017 TEMPO BKN005
  • 190300Z AUTO 18003KT 9999 FEW010 OVC140 12/11 Q1017 TEMPO BKN005
  • 190230Z AUTO 00000KT CAVOK 11/10 Q1017 TEMPO BKN005
  • 190200Z AUTO 26003KT 200V310 CAVOK 12/11 Q1017 TEMPO BKN005

TAF TAF LFBP
Valido dal 19 a 00 ore il 20 a 00 ore UTC


182300Z 1900/1924 VRB03KT CAVOK
PROB30 1903/1906 BKN005
BECMG 1910/1913 05005KT
Nessun NOTAM noto per questo aeroporto.
2 SIGMETs conosciuti per la FIR Bordeaux (LFBB) :
 
Turbolenza severa
LFBB SIGMET 6 VALID 190100/190500 LFPW
LFBB BORDEAUX FIR/UIR SEV TURB FCST WI N4400 E00245 - N4315 E00230 - N4300 E00215 - N4330 E00130 - N4400 E00245 SFC/FL050 STNR NC=
Turbolenza severa
LFBB SIGMET 1 VALID 190500/190900 LFPW
LFBB BORDEAUX FIR/UIR SEV TURB FCST WI N4415 E00245 - N4315 E00230 - N4330 E00145 - N4415 E00245 SFC/FL060 STNR NC=



MetMap, La meteo Aeronautica in un colpo d'occhio ! - Copyright ORBIFLY Dicembre 2007 - Disclaimer

ORBIFLY MET'MAP TEAM :

Programmazione e sviluppo : Alexandra Zaïnal
Concezione e sviluppo : Baudouin d'Aumeries
Co-Programmazione e sviluppo : Marc-Olivier Méhu
Supporto tecnico e logistico : Manuel Goepfert
Aiuto per la traduzione : Arnaldo La Scala

Contatto : metmap@orbifly.com




FONTI E CREDITI :

   NOAA